Time;durP1;ratioP1;P1;durP2;ratioP2;P2;SDS_P1;SDS_P2;PMS_P1;PMS_P2;Temp;Humidity;BMP_temperature;BMP_pressure;BME280_temperature;BME280_humidity;BME280_pressure;Samples;Min_cycle;Max_cycle;Signal;HPM_P1;HPM_P2
2021/08/18 00:01:34;;;;;;;13.73;6.68;;;;;;;14.40;93.38;98063.28;5025923;28;20144;-64
2021/08/18 00:04:01;;;;;;;15.48;7.00;;;;;;;14.30;95.11;98071.75;5028702;28;20055;-63
2021/08/18 00:06:29;;;;;;;12.38;6.63;;;;;;;14.39;94.08;98064.22;5026448;28;20132;-62
2021/08/18 00:08:57;;;;;;;14.93;6.90;;;;;;;14.18;94.78;98063.63;5030823;28;20037;-63
2021/08/18 00:11:22;;;;;;;13.73;7.18;;;;;;;14.22;94.37;98070.38;5027438;28;20045;-65
2021/08/18 00:13:48;;;;;;;13.55;6.47;;;;;;;14.56;92.82;98068.53;5027565;28;20410;-65
2021/08/18 00:16:14;;;;;;;17.20;7.10;;;;;;;14.54;92.24;98065.16;5026843;28;20045;-64
2021/08/18 00:18:39;;;;;;;14.30;6.68;;;;;;;14.16;93.32;98069.88;5025695;28;20041;-65
2021/08/18 00:21:05;;;;;;;18.08;7.38;;;;;;;14.46;93.76;98068.22;5027078;28;20037;-63
2021/08/18 00:23:30;;;;;;;19.25;7.03;;;;;;;14.21;95.48;98063.47;5025937;28;20068;-63
2021/08/18 00:25:55;;;;;;;22.10;8.10;;;;;;;14.23;94.30;98063.38;5027739;28;20072;-64
2021/08/18 00:28:21;;;;;;;20.23;7.75;;;;;;;14.17;97.70;98066.31;5028663;28;20060;-65
2021/08/18 00:30:47;;;;;;;19.50;8.10;;;;;;;13.94;98.75;98060.53;5027335;28;20878;-62
2021/08/18 00:33:12;;;;;;;22.15;8.93;;;;;;;14.10;97.05;98062.31;5027839;28;20029;-62
2021/08/18 00:35:38;;;;;;;17.90;7.95;;;;;;;14.20;98.39;98055.66;5027430;28;20626;-63
2021/08/18 00:38:04;;;;;;;18.98;8.75;;;;;;;13.95;100.00;98062.25;5025485;28;20557;-65
2021/08/18 00:40:29;;;;;;;19.40;8.65;;;;;;;13.92;100.00;98058.94;5027909;28;20032;-63
2021/08/18 00:42:54;;;;;;;14.15;7.00;;;;;;;14.45;98.13;98061.25;5025110;28;20152;-65
2021/08/18 00:45:21;;;;;;;22.67;9.15;;;;;;;14.00;99.28;98060.22;5026012;28;20471;-63
2021/08/18 00:47:48;;;;;;;19.48;8.45;;;;;;;13.87;100.00;98053.94;5028194;28;20045;-62
2021/08/18 00:50:17;;;;;;;19.90;8.27;;;;;;;14.11;99.24;98056.16;5027248;28;20025;-64
2021/08/18 00:52:43;;;;;;;23.10;8.75;;;;;;;13.67;100.00;98055.00;5027098;28;20037;-63
2021/08/18 00:55:14;;;;;;;22.98;9.30;;;;;;;13.96;100.00;98058.69;5026752;28;20860;-64
2021/08/18 00:57:40;;;;;;;20.27;8.57;;;;;;;14.11;100.00;98050.91;5026537;28;20578;-65
2021/08/18 01:00:11;;;;;;;19.08;8.07;;;;;;;13.86;99.18;98052.25;5028684;28;20103;-62
2021/08/18 01:02:38;;;;;;;19.80;8.23;;;;;;;13.85;100.00;98051.38;5026614;28;20024;-64
2021/08/18 01:05:16;;;;;;;17.73;8.23;;;;;;;13.94;99.94;98054.47;5027881;28;20036;-65
2021/08/18 01:07:42;;;;;;;17.92;8.18;;;;;;;13.96;99.44;98052.59;5026332;28;20038;-62
2021/08/18 01:10:11;;;;;;;18.02;8.48;;;;;;;14.12;98.17;98047.38;5026244;28;20021;-65
2021/08/18 01:12:38;;;;;;;14.98;7.40;;;;;;;14.17;97.69;98050.56;5026913;28;20739;-65
2021/08/18 01:15:09;;;;;;;17.17;7.25;;;;;;;14.46;96.86;98047.22;5025277;28;20854;-65
2021/08/18 01:17:41;;;;;;;20.95;8.55;;;;;;;14.32;97.46;98044.50;5026520;28;20079;-66
2021/08/18 01:20:08;;;;;;;18.97;8.30;;;;;;;14.57;97.30;98049.22;5026878;28;20029;-64
2021/08/18 01:22:33;;;;;;;16.08;7.60;;;;;;;14.41;96.31;98045.75;5027310;28;20260;-63
2021/08/18 01:24:59;;;;;;;13.57;7.15;;;;;;;14.33;96.61;98035.69;5026646;28;20029;-62
2021/08/18 01:27:25;;;;;;;17.48;7.93;;;;;;;14.15;99.09;98032.31;5024965;28;20041;-62
2021/08/18 01:29:51;;;;;;;18.00;8.15;;;;;;;14.23;97.27;98040.59;5027999;28;20036;-62
2021/08/18 01:32:17;;;;;;;19.48;8.63;;;;;;;14.20;98.87;98034.69;5026095;28;20071;-64
2021/08/18 01:34:42;;;;;;;22.52;9.30;;;;;;;13.80;100.00;98037.72;5025430;28;20037;-64
2021/08/18 01:37:08;;;;;;;20.13;8.60;;;;;;;13.90;100.00;98029.34;5029533;28;20044;-63
2021/08/18 01:39:34;;;;;;;19.02;8.15;;;;;;;13.68;100.00;98039.19;5026703;28;20601;-65
2021/08/18 01:41:59;;;;;;;16.35;7.88;;;;;;;13.84;100.00;98039.22;5028759;28;20037;-63
2021/08/18 01:44:24;;;;;;;16.17;7.57;;;;;;;14.14;100.00;98035.03;5027168;28;20031;-64
2021/08/18 01:46:50;;;;;;;22.90;8.90;;;;;;;13.85;100.00;98033.03;5026125;28;20136;-64
2021/08/18 01:49:15;;;;;;;20.35;8.02;;;;;;;14.17;100.00;98034.84;5023754;28;20586;-61
2021/08/18 01:51:41;;;;;;;20.40;8.23;;;;;;;14.03;100.00;98031.19;5025659;28;20041;-62
2021/08/18 01:54:07;;;;;;;22.98;9.02;;;;;;;13.89;100.00;98025.84;5027750;28;20062;-61
2021/08/18 01:56:32;;;;;;;19.60;7.85;;;;;;;14.05;100.00;98026.72;5024492;28;20587;-61
2021/08/18 01:58:58;;;;;;;20.58;8.75;;;;;;;14.11;100.00;98024.69;5028168;28;20021;-62
2021/08/18 02:01:24;;;;;;;18.60;8.43;;;;;;;14.06;100.00;98038.03;5027801;28;20045;-63
2021/08/18 02:03:52;;;;;;;17.52;7.20;;;;;;;14.26;100.00;98034.31;5025362;28;20048;-64
2021/08/18 02:06:19;;;;;;;23.27;8.38;;;;;;;14.19;100.00;98038.22;5026472;28;20045;-61
2021/08/18 02:08:44;;;;;;;20.75;8.85;;;;;;;14.21;100.00;98034.59;5026253;28;20445;-63
2021/08/18 02:11:10;;;;;;;23.05;8.77;;;;;;;13.92;100.00;98041.44;5028634;28;20502;-62
2021/08/18 02:13:36;;;;;;;17.35;7.95;;;;;;;14.18;100.00;98039.16;5026818;28;20071;-62
2021/08/18 02:16:02;;;;;;;18.42;7.82;;;;;;;14.17;100.00;98029.59;5026858;28;20128;-61
2021/08/18 02:18:28;;;;;;;20.48;8.73;;;;;;;13.85;100.00;98035.66;5024937;28;20025;-64
2021/08/18 02:20:54;;;;;;;15.93;7.10;;;;;;;13.99;100.00;98027.06;5026238;28;20395;-62
2021/08/18 02:23:19;;;;;;;21.38;7.55;;;;;;;14.29;98.95;98028.91;5026786;28;20694;-62
2021/08/18 02:25:45;;;;;;;19.30;8.35;;;;;;;13.92;100.00;98030.94;5025079;28;20029;-62
2021/08/18 02:28:11;;;;;;;18.23;8.18;;;;;;;13.82;100.00;98025.34;5024568;28;20608;-62
2021/08/18 02:30:38;;;;;;;18.42;8.63;;;;;;;13.86;100.00;98026.88;5026207;28;20658;-62
2021/08/18 02:33:04;;;;;;;20.10;8.32;;;;;;;14.06;100.00;98036.28;5032151;28;20028;-62
2021/08/18 02:35:30;;;;;;;17.45;7.55;;;;;;;13.97;100.00;98031.53;5027518;28;20130;-64
2021/08/18 02:37:57;;;;;;;25.67;8.00;;;;;;;13.91;100.00;98031.03;5026126;28;20112;-63
2021/08/18 02:40:23;;;;;;;15.18;6.88;;;;;;;14.48;100.00;98033.13;5023860;28;20033;-64
2021/08/18 02:42:50;;;;;;;21.00;9.13;;;;;;;14.23;99.54;98027.50;5027456;28;20029;-62
2021/08/18 02:45:16;;;;;;;18.98;8.30;;;;;;;14.15;100.00;98032.31;5027146;28;20031;-63
2021/08/18 02:47:42;;;;;;;19.90;8.68;;;;;;;14.12;100.00;98029.03;5025076;28;20041;-62
2021/08/18 02:50:10;;;;;;;19.77;7.85;;;;;;;14.31;100.00;98031.47;5023950;28;20825;-63
2021/08/18 02:52:35;;;;;;;17.63;8.43;;;;;;;13.84;100.00;98033.97;5025646;28;20029;-64
2021/08/18 02:55:01;;;;;;;21.23;8.50;;;;;;;14.24;100.00;98031.81;5023233;28;20029;-62
2021/08/18 02:57:26;;;;;;;21.83;8.43;;;;;;;14.27;100.00;98025.53;5025380;28;20045;-65
2021/08/18 02:59:52;;;;;;;17.80;7.88;;;;;;;14.17;100.00;98030.47;5025584;28;20494;-65
2021/08/18 03:02:21;;;;;;;17.73;8.13;;;;;;;14.50;100.00;98028.66;5023844;28;20040;-66
2021/08/18 03:04:46;;;;;;;22.92;8.43;;;;;;;14.04;100.00;98024.16;5025537;28;20060;-62
2021/08/18 03:07:12;;;;;;;12.70;5.97;;;;;;;14.46;100.00;98031.47;5024541;28;20065;-65
2021/08/18 03:09:37;;;;;;;20.15;8.10;;;;;;;14.59;99.13;98030.78;5023445;28;20419;-63
2021/08/18 03:12:03;;;;;;;15.38;7.47;;;;;;;14.28;100.00;98027.25;5025248;28;20045;-63
2021/08/18 03:14:29;;;;;;;21.33;8.27;;;;;;;14.04;100.00;98026.78;5024522;28;20025;-64
2021/08/18 03:16:54;;;;;;;20.45;8.48;;;;;;;14.40;100.00;98031.78;5026246;28;20045;-63
2021/08/18 03:19:19;;;;;;;21.70;8.90;;;;;;;14.17;100.00;98024.34;5024279;28;20112;-63
2021/08/18 03:21:45;;;;;;;17.90;8.05;;;;;;;14.07;100.00;98024.84;5025282;28;20045;-65
2021/08/18 03:24:11;;;;;;;19.42;8.32;;;;;;;14.27;100.00;98028.16;5025676;28;20112;-62
2021/08/18 03:26:37;;;;;;;17.50;7.90;;;;;;;14.21;100.00;98020.66;5021176;28;20334;-65
2021/08/18 03:29:03;;;;;;;19.50;8.68;;;;;;;14.39;100.00;98030.13;5024495;28;20032;-65
2021/08/18 03:31:29;;;;;;;21.52;8.75;;;;;;;14.24;100.00;98025.69;5026060;28;20513;-62
2021/08/18 03:33:54;;;;;;;20.38;9.13;;;;;;;14.21;100.00;98025.88;5026876;28;20055;-63
2021/08/18 03:36:19;;;;;;;15.48;8.25;;;;;;;14.19;100.00;98017.22;5026982;28;20091;-64
2021/08/18 03:38:46;;;;;;;19.00;8.07;;;;;;;14.03;100.00;98018.09;5025993;28;20021;-64
2021/08/18 03:41:11;;;;;;;16.88;8.25;;;;;;;14.21;100.00;98023.28;5025438;28;20033;-62
2021/08/18 03:43:39;;;;;;;18.02;8.18;;;;;;;14.16;100.00;98017.44;5022859;28;20034;-62
2021/08/18 03:46:04;;;;;;;19.63;8.38;;;;;;;14.66;98.24;98011.13;5025319;28;20129;-65
2021/08/18 03:48:29;;;;;;;14.73;7.25;;;;;;;14.07;100.00;98016.16;5025441;28;20455;-64
2021/08/18 03:50:55;;;;;;;18.90;8.70;;;;;;;14.31;100.00;98011.31;5025638;28;20053;-63
2021/08/18 03:53:20;;;;;;;17.02;7.63;;;;;;;14.59;100.00;98020.28;5030813;28;20545;-64
2021/08/18 03:55:45;;;;;;;16.65;7.88;;;;;;;14.44;100.00;98017.56;5029355;28;20072;-66
2021/08/18 03:58:11;;;;;;;18.38;8.40;;;;;;;14.50;100.00;98023.41;5028254;28;20036;-62
2021/08/18 04:00:36;;;;;;;20.63;9.15;;;;;;;14.36;100.00;98030.28;5027741;28;20795;-62
2021/08/18 04:03:02;;;;;;;17.95;8.48;;;;;;;14.41;100.00;98033.50;5029496;28;20111;-62
2021/08/18 04:05:28;;;;;;;17.85;8.20;;;;;;;14.48;100.00;98031.34;5029635;28;20490;-65
2021/08/18 04:07:53;;;;;;;15.52;7.40;;;;;;;14.81;99.39;98036.50;5030784;28;20021;-64
2021/08/18 04:10:18;;;;;;;16.85;7.82;;;;;;;14.82;98.72;98032.09;5029784;28;20047;-62
2021/08/18 04:12:55;;;;;;;17.77;8.32;;;;;;;14.57;99.92;98025.63;5027754;28;20758;-65
2021/08/18 04:15:22;;;;;;;16.10;7.70;;;;;;;14.74;98.79;98024.66;5028147;28;20400;-63
2021/08/18 04:17:48;;;;;;;18.45;8.90;;;;;;;14.52;100.00;98024.16;5028818;28;20033;-63
2021/08/18 04:20:13;;;;;;;18.20;7.97;;;;;;;14.60;99.70;98032.47;5025149;28;20706;-63
2021/08/18 04:22:40;;;;;;;13.20;6.72;;;;;;;15.07;97.07;98036.78;5028402;28;20101;-62
2021/08/18 04:25:09;;;;;;;20.17;9.00;;;;;;;14.63;98.57;98034.91;5025783;28;20698;-63
2021/08/18 04:27:34;;;;;;;15.52;7.40;;;;;;;14.77;99.60;98029.72;5027678;28;20025;-63
2021/08/18 04:29:59;;;;;;;17.05;7.45;;;;;;;14.69;99.79;98029.34;5029375;28;20021;-64
2021/08/18 04:32:25;;;;;;;16.30;7.90;;;;;;;14.83;99.52;98018.03;5029819;28;21199;-63
2021/08/18 04:34:50;;;;;;;15.00;7.28;;;;;;;14.72;99.58;98016.03;5028620;28;20037;-65
2021/08/18 04:37:15;;;;;;;20.45;8.52;;;;;;;14.52;99.09;98026.78;5030699;28;20124;-63
2021/08/18 04:39:41;;;;;;;16.83;7.53;;;;;;;14.64;100.00;98018.25;5026627;28;20047;-65
2021/08/18 04:42:06;;;;;;;17.10;7.65;;;;;;;14.82;99.30;98021.59;5028797;28;20041;-63
2021/08/18 04:44:32;;;;;;;24.58;8.85;;;;;;;14.67;99.86;98023.34;5027278;28;20498;-65
2021/08/18 04:46:57;;;;;;;16.80;7.72;;;;;;;14.79;99.31;98022.59;5027357;28;20045;-65
2021/08/18 04:49:22;;;;;;;18.15;7.85;;;;;;;14.87;99.11;98023.94;5027795;28;20108;-63
2021/08/18 04:51:48;;;;;;;20.55;9.20;;;;;;;14.73;100.00;98030.84;5026539;28;20040;-63
2021/08/18 04:54:13;;;;;;;14.85;6.95;;;;;;;15.08;98.05;98022.69;5030339;28;20029;-63
2021/08/18 04:56:38;;;;;;;20.70;8.00;;;;;;;15.06;98.12;98024.56;5029218;28;20067;-63
2021/08/18 04:59:04;;;;;;;16.88;7.13;;;;;;;15.15;98.18;98024.03;5028431;28;20108;-65
2021/08/18 05:01:31;;;;;;;15.90;7.55;;;;;;;14.91;98.41;98025.47;5037487;28;20438;-63
2021/08/18 05:03:57;;;;;;;23.65;9.40;;;;;;;14.71;100.00;98022.22;5029409;28;20086;-63
2021/08/18 05:06:22;;;;;;;16.15;7.63;;;;;;;15.14;96.31;98030.19;5026271;28;20029;-66
2021/08/18 05:08:47;;;;;;;22.00;9.30;;;;;;;14.96;99.59;98028.66;5029690;28;20030;-63
2021/08/18 05:11:13;;;;;;;15.73;7.43;;;;;;;14.95;100.00;98029.59;5030444;28;20048;-65
2021/08/18 05:13:38;;;;;;;18.20;7.82;;;;;;;15.11;99.22;98032.16;5031377;28;20517;-63
2021/08/18 05:16:04;;;;;;;18.50;8.07;;;;;;;15.19;98.73;98033.41;5031989;28;20127;-63
2021/08/18 05:18:29;;;;;;;16.50;7.63;;;;;;;15.06;97.80;98029.81;5030923;28;20033;-66
2021/08/18 05:20:54;;;;;;;18.65;8.50;;;;;;;15.07;97.61;98030.66;5030001;28;20057;-65
2021/08/18 05:23:20;;;;;;;22.23;8.07;;;;;;;15.01;98.68;98032.69;5030690;28;20041;-66
2021/08/18 05:25:49;;;;;;;16.13;7.32;;;;;;;15.36;96.08;98034.19;5028347;28;20180;-63
2021/08/18 05:28:18;;;;;;;15.82;7.40;;;;;;;15.10;97.95;98036.56;5030503;28;20091;-64
2021/08/18 05:30:44;;;;;;;17.23;7.22;;;;;;;15.11;97.10;98033.03;5028009;28;20155;-62
2021/08/18 05:33:09;;;;;;;15.93;7.18;;;;;;;15.37;96.17;98028.00;5029470;28;20048;-66
2021/08/18 05:35:34;;;;;;;19.45;8.07;;;;;;;15.21;96.16;98036.78;5026772;28;20136;-63
2021/08/18 05:38:00;;;;;;;14.30;6.60;;;;;;;15.54;95.21;98032.25;5028372;28;20036;-62
2021/08/18 05:40:25;;;;;;;16.17;7.63;;;;;;;15.08;96.08;98046.34;5028823;28;20064;-65
2021/08/18 05:42:50;;;;;;;15.73;7.30;;;;;;;15.15;96.78;98042.41;5028239;28;20021;-65
2021/08/18 05:45:16;;;;;;;13.00;6.72;;;;;;;15.14;97.35;98045.97;5030019;28;20032;-65
2021/08/18 05:47:42;;;;;;;12.48;6.38;;;;;;;15.22;96.29;98041.13;5031431;28;20337;-64
2021/08/18 05:50:07;;;;;;;16.55;6.75;;;;;;;15.19;96.31;98040.44;5032247;28;20041;-66
2021/08/18 05:52:33;;;;;;;15.60;7.25;;;;;;;15.11;97.60;98043.53;5028901;28;20026;-64
2021/08/18 05:55:02;;;;;;;17.50;7.18;;;;;;;15.22;97.23;98043.75;5029707;28;20402;-62
2021/08/18 05:57:30;;;;;;;16.80;6.95;;;;;;;15.50;94.81;98039.47;5025947;28;20037;-64
2021/08/18 05:59:55;;;;;;;18.77;7.60;;;;;;;15.75;95.91;98043.25;5030460;28;20033;-62
2021/08/18 06:02:21;;;;;;;17.85;8.48;;;;;;;15.33;100.00;98039.63;5026495;28;20412;-66
2021/08/18 06:04:46;;;;;;;20.65;8.18;;;;;;;15.39;98.39;98042.72;5028929;28;20060;-64
2021/08/18 06:07:11;;;;;;;20.67;8.55;;;;;;;15.57;100.00;98051.31;5027459;28;20052;-64
2021/08/18 06:09:37;;;;;;;22.10;8.25;;;;;;;15.15;98.86;98049.47;5029171;28;20110;-66
2021/08/18 06:12:07;;;;;;;15.48;7.57;;;;;;;15.22;98.72;98051.63;5027932;28;20140;-64
2021/08/18 06:14:32;;;;;;;23.13;8.32;;;;;;;15.14;98.78;98059.09;5027568;28;20031;-63
2021/08/18 06:16:58;;;;;;;19.38;8.13;;;;;;;15.17;98.61;98052.84;5029847;28;20037;-64
2021/08/18 06:19:23;;;;;;;17.65;7.88;;;;;;;15.38;96.51;98061.22;5030352;28;20040;-65
2021/08/18 06:21:49;;;;;;;17.27;8.00;;;;;;;15.14;100.00;98053.84;5028201;28;20087;-63
2021/08/18 06:26:45;;;;;;;17.10;7.57;;;;;;;15.56;96.94;98049.59;5009462;28;20060;-62
2021/08/18 06:29:11;;;;;;;14.05;7.25;;;;;;;15.36;97.03;98049.94;5024707;28;20021;-63
2021/08/18 06:31:36;;;;;;;17.98;8.10;;;;;;;15.17;99.16;98053.69;5028752;28;20033;-63
2021/08/18 06:34:01;;;;;;;21.02;8.68;;;;;;;15.50;97.54;98049.97;5029071;28;20053;-63
2021/08/18 06:36:27;;;;;;;15.80;7.25;;;;;;;15.69;96.44;98040.97;5026991;28;20040;-63
2021/08/18 06:38:52;;;;;;;18.02;7.32;;;;;;;15.36;98.06;98052.59;5023446;28;20060;-63
2021/08/18 06:41:17;;;;;;;19.50;7.65;;;;;;;15.27;98.09;98048.72;5028220;28;20072;-62
2021/08/18 06:43:43;;;;;;;16.77;8.30;;;;;;;15.57;96.07;98051.31;5026689;28;20104;-65
2021/08/18 06:46:08;;;;;;;11.60;5.90;;;;;;;15.63;97.77;98049.25;5028109;28;20051;-65
2021/08/18 06:48:34;;;;;;;15.85;6.90;;;;;;;15.52;96.45;98048.09;5026908;28;20812;-65
2021/08/18 06:51:00;;;;;;;17.55;7.05;;;;;;;15.32;98.05;98056.34;5028984;28;20476;-63
2021/08/18 06:53:25;;;;;;;15.55;6.95;;;;;;;15.71;95.28;98049.59;5026957;28;20530;-62
2021/08/18 06:55:51;;;;;;;15.55;7.00;;;;;;;15.63;97.55;98054.50;5026074;28;20037;-62
2021/08/18 06:58:16;;;;;;;14.60;6.90;;;;;;;16.09;93.63;98052.53;5028105;28;20084;-63
2021/08/18 07:00:41;;;;;;;16.08;6.72;;;;;;;15.45;97.33;98059.91;5027261;28;20088;-63
2021/08/18 07:03:07;;;;;;;17.17;7.15;;;;;;;15.73;95.57;98056.47;5028388;28;20033;-65
2021/08/18 07:05:32;;;;;;;15.38;7.38;;;;;;;15.73;96.25;98058.25;5029129;28;20068;-64
2021/08/18 07:07:58;;;;;;;13.88;6.65;;;;;;;15.69;95.98;98062.00;5025342;28;20033;-63
2021/08/18 07:10:23;;;;;;;13.30;6.75;;;;;;;15.29;96.80;98060.00;5027232;28;20435;-66
2021/08/18 07:12:49;;;;;;;10.63;5.93;;;;;;;15.84;95.48;98052.38;5028890;28;20033;-66
2021/08/18 07:15:14;;;;;;;15.02;6.60;;;;;;;15.73;95.77;98059.13;5027140;28;20021;-66
2021/08/18 07:17:40;;;;;;;16.17;7.50;;;;;;;15.55;96.86;98068.97;5026874;28;20025;-63
2021/08/18 07:20:06;;;;;;;10.50;5.85;;;;;;;15.88;95.48;98060.00;5027535;28;20541;-63
2021/08/18 07:22:31;;;;;;;13.02;6.00;;;;;;;16.12;93.88;98056.75;5027436;28;20025;-64
2021/08/18 07:24:59;;;;;;;11.40;6.65;;;;;;;15.91;94.90;98065.03;5030708;28;20035;-66
2021/08/18 07:27:24;;;;;;;12.43;6.13;;;;;;;15.89;96.37;98060.81;5027481;28;20034;-65
2021/08/18 07:29:49;;;;;;;12.25;6.18;;;;;;;16.40;92.27;98057.66;5029051;28;20278;-63
2021/08/18 07:32:15;;;;;;;13.60;6.00;;;;;;;16.40;91.63;98060.28;5032924;28;20036;-63
2021/08/18 07:34:40;;;;;;;11.88;5.85;;;;;;;16.35;92.50;98061.41;5030577;28;20056;-64
2021/08/18 07:37:05;;;;;;;10.50;5.90;;;;;;;16.61;93.46;98058.88;5029254;28;20222;-64
2021/08/18 07:39:31;;;;;;;13.80;6.25;;;;;;;16.34;93.15;98070.25;5029753;28;20082;-65
2021/08/18 07:41:56;;;;;;;10.80;5.53;;;;;;;16.68;91.21;98062.81;5029217;28;20114;-66
2021/08/18 07:44:21;;;;;;;10.88;5.75;;;;;;;16.55;91.95;98061.94;5029861;28;20124;-63
2021/08/18 07:46:48;;;;;;;9.95;5.75;;;;;;;16.21;92.93;98064.09;5031361;28;20477;-66
2021/08/18 07:49:13;;;;;;;9.07;5.32;;;;;;;16.48;91.79;98069.38;5030530;28;20022;-66
2021/08/18 07:51:39;;;;;;;10.57;5.60;;;;;;;16.34;92.07;98070.25;5030266;28;20026;-63
2021/08/18 07:54:04;;;;;;;14.60;6.38;;;;;;;16.55;93.49;98075.09;5031694;28;20516;-64
2021/08/18 07:56:32;;;;;;;9.20;5.43;;;;;;;16.45;90.85;98068.72;5031085;28;20037;-63
2021/08/18 07:59:00;;;;;;;9.00;5.30;;;;;;;16.33;92.90;98073.81;5029350;28;20025;-64
2021/08/18 08:01:25;;;;;;;10.60;5.75;;;;;;;16.28;92.78;98068.00;5029942;28;20033;-65
2021/08/18 08:03:51;;;;;;;9.48;5.53;;;;;;;16.31;93.15;98070.44;5030900;28;20086;-66
2021/08/18 08:06:16;;;;;;;10.82;5.80;;;;;;;16.35;94.10;98074.56;5029900;28;20041;-64
2021/08/18 08:08:41;;;;;;;10.88;5.75;;;;;;;16.55;92.17;98061.94;5030472;28;20021;-62
2021/08/18 08:11:07;;;;;;;11.90;6.20;;;;;;;16.45;92.51;98063.44;5031502;28;20087;-64
2021/08/18 08:13:32;;;;;;;12.60;6.20;;;;;;;16.76;90.95;98072.84;5030763;28;20458;-64
2021/08/18 08:15:57;;;;;;;11.68;5.82;;;;;;;17.07;91.43;98068.25;5029965;28;20144;-64
2021/08/18 08:18:22;;;;;;;10.73;5.13;;;;;;;16.89;90.84;98078.19;5031718;28;20026;-63
2021/08/18 08:20:50;;;;;;;11.27;5.47;;;;;;;16.77;91.40;98075.38;5030309;28;20647;-62
2021/08/18 08:23:15;;;;;;;8.82;4.80;;;;;;;16.97;90.18;98081.19;5030908;28;20539;-63
2021/08/18 08:25:41;;;;;;;9.15;4.95;;;;;;;16.85;89.99;98076.72;5030081;28;20059;-62
2021/08/18 08:28:06;;;;;;;8.50;4.95;;;;;;;16.89;89.43;98083.47;5026836;28;20047;-65
2021/08/18 08:30:32;;;;;;;10.45;5.20;;;;;;;16.96;90.24;98082.13;5030283;28;20038;-66
2021/08/18 08:32:57;;;;;;;8.23;5.13;;;;;;;16.69;90.98;98088.22;5028484;28;20029;-63
2021/08/18 08:35:23;;;;;;;9.05;5.13;;;;;;;17.23;89.56;98086.53;5028072;28;20059;-63
2021/08/18 08:37:48;;;;;;;12.25;5.40;;;;;;;16.88;90.89;98084.44;5027424;28;20056;-64
2021/08/18 08:40:13;;;;;;;8.52;4.97;;;;;;;16.94;89.92;98086.66;5029482;28;20494;-64
2021/08/18 08:42:40;;;;;;;10.60;5.00;;;;;;;16.92;88.22;98078.00;5029860;28;20044;-62
2021/08/18 08:45:06;;;;;;;9.07;5.40;;;;;;;16.75;89.72;98084.34;5030293;28;20040;-61
2021/08/18 08:47:34;;;;;;;11.80;5.60;;;;;;;16.88;89.55;98076.53;5028170;28;20041;-64
2021/08/18 08:50:01;;;;;;;9.38;4.90;;;;;;;16.97;89.94;98081.19;5029218;28;20151;-62
2021/08/18 08:52:26;;;;;;;8.90;5.18;;;;;;;17.08;88.86;98078.69;5030728;28;20041;-62
2021/08/18 08:54:54;;;;;;;8.45;4.88;;;;;;;17.22;88.27;98076.91;5029977;28;20553;-63
2021/08/18 08:57:20;;;;;;;7.40;4.68;;;;;;;17.41;87.27;98082.66;5028032;28;20547;-63
2021/08/18 08:59:45;;;;;;;8.13;4.28;;;;;;;17.15;89.21;98074.69;5028285;28;20032;-62
2021/08/18 09:02:12;;;;;;;10.70;5.03;;;;;;;17.22;87.96;98074.28;5028609;28;20099;-65
2021/08/18 09:04:46;;;;;;;8.60;4.63;;;;;;;17.42;86.36;98086.13;5032105;28;20817;-63
2021/08/18 09:07:16;;;;;;;8.15;4.90;;;;;;;17.15;87.16;98082.59;5026772;28;20041;-63
2021/08/18 09:09:50;;;;;;;8.80;4.30;;;;;;;17.27;86.89;98080.09;5027103;28;20099;-62
2021/08/18 09:12:18;;;;;;;11.60;5.25;;;;;;;17.06;87.31;98090.28;5028962;28;20038;-63
2021/08/18 09:14:43;;;;;;;8.65;4.82;;;;;;;17.07;88.07;98087.53;5029634;28;20605;-62
2021/08/18 09:17:27;;;;;;;6.75;4.20;;;;;;;17.38;85.66;98088.13;5029954;28;20090;-64
2021/08/18 09:20:10;;;;;;;8.23;5.10;;;;;;;17.08;87.99;98081.31;5027150;28;20112;-65
2021/08/18 09:23:00;;;;;;;6.88;3.85;;;;;;;17.14;87.26;98083.53;5030125;28;20051;-63
2021/08/18 09:25:35;;;;;;;7.68;3.83;;;;;;;17.80;83.04;98086.13;5026791;28;20076;-65
2021/08/18 09:28:00;;;;;;;9.10;4.38;;;;;;;17.57;83.80;98089.50;5029824;28;20029;-63
2021/08/18 09:30:28;;;;;;;6.43;4.15;;;;;;;17.41;83.89;98087.91;5028033;28;20140;-62
2021/08/18 09:32:56;;;;;;;7.82;4.35;;;;;;;17.41;85.07;98087.91;5029012;28;20029;-63
2021/08/18 09:35:24;;;;;;;6.75;4.35;;;;;;;17.10;84.94;98082.06;5028853;28;20106;-64
2021/08/18 09:37:58;;;;;;;6.63;4.53;;;;;;;17.54;83.81;98083.50;5027575;28;20768;-62
2021/08/18 09:40:30;;;;;;;8.65;4.82;;;;;;;17.26;85.13;98083.66;5028570;28;20102;-63
2021/08/18 09:43:06;;;;;;;11.05;5.15;;;;;;;17.09;87.16;98090.06;5031128;28;20021;-63
2021/08/18 09:45:34;;;;;;;7.57;4.72;;;;;;;17.15;87.40;98085.25;5027488;28;20067;-65
2021/08/18 09:48:12;;;;;;;7.40;4.45;;;;;;;17.39;85.69;98084.53;5028117;28;20037;-64
2021/08/18 09:50:43;;;;;;;7.88;4.28;;;;;;;17.46;84.68;98087.59;5027362;28;20045;-64
2021/08/18 09:53:10;;;;;;;8.18;4.68;;;;;;;17.48;84.51;98081.28;5028931;28;20025;-66
2021/08/18 09:55:37;;;;;;;7.68;4.75;;;;;;;17.80;83.32;98085.31;5027269;28;20484;-66
2021/08/18 09:58:02;;;;;;;10.32;4.85;;;;;;;17.77;85.38;98082.88;5036818;28;20020;-64
2021/08/18 10:00:29;;;;;;;7.80;4.80;;;;;;;17.80;86.01;98086.13;5027545;28;20040;-63
2021/08/18 10:02:54;;;;;;;7.38;4.55;;;;;;;17.88;84.68;98083.84;5028138;28;20021;-66
2021/08/18 10:05:20;;;;;;;8.05;4.78;;;;;;;17.84;82.24;98082.31;5028833;28;20375;-65
2021/08/18 10:07:46;;;;;;;7.30;4.22;;;;;;;18.06;83.12;98088.78;5028248;28;20037;-64
2021/08/18 10:10:14;;;;;;;7.72;4.70;;;;;;;18.39;83.08;98093.47;5027654;28;20033;-66
2021/08/18 10:12:40;;;;;;;6.22;3.97;;;;;;;18.52;79.81;98088.16;5027480;28;20119;-65
2021/08/18 10:15:06;;;;;;;7.10;4.25;;;;;;;18.86;78.36;98085.75;5028609;28;20930;-67
2021/08/18 10:17:39;;;;;;;8.05;4.38;;;;;;;18.60;78.17;98088.47;5026929;28;20037;-65
2021/08/18 10:20:06;;;;;;;6.32;4.38;;;;;;;19.50;76.45;98092.44;5025890;28;20609;-66
2021/08/18 10:22:32;;;;;;;14.57;4.18;;;;;;;19.31;75.91;98085.91;5028792;28;20800;-64
2021/08/18 10:25:35;;;;;;;7.25;4.85;;;;;;;19.18;74.71;98085.16;5028953;28;20033;-66
2021/08/18 10:28:02;;;;;;;6.32;3.72;;;;;;;19.77;73.36;98092.16;5028751;28;20121;-66
2021/08/18 10:30:28;;;;;;;7.65;4.28;;;;;;;19.48;75.79;98081.97;5029826;28;20138;-67
2021/08/18 10:32:54;;;;;;;7.70;4.15;;;;;;;18.56;76.94;98084.31;5026499;28;20461;-65
2021/08/18 10:35:34;;;;;;;5.60;3.90;;;;;;;19.12;75.66;98086.44;5028659;28;20032;-65
2021/08/18 10:38:26;;;;;;;5.60;3.80;;;;;;;18.87;77.18;98087.41;5027994;28;20017;-63
2021/08/18 10:40:51;;;;;;;9.40;4.07;;;;;;;18.91;78.43;98088.88;5029813;28;20029;-64
2021/08/18 10:43:52;;;;;;;9.13;4.05;;;;;;;19.09;77.58;98085.84;5031057;28;20040;-64
2021/08/18 10:46:18;;;;;;;9.23;4.35;;;;;;;18.22;79.85;98076.19;5028670;28;20037;-65
2021/08/18 10:48:55;;;;;;;6.88;4.22;;;;;;;18.03;81.68;98076.66;5029744;28;20028;-65
2021/08/18 10:51:39;;;;;;;6.35;4.10;;;;;;;17.68;83.46;98076.41;5028327;28;20029;-64
2021/08/18 10:54:40;;;;;;;8.13;4.40;;;;;;;17.90;81.11;98076.69;5030030;28;20033;-67
2021/08/18 10:57:39;;;;;;;6.53;4.30;;;;;;;17.85;82.99;98080.59;4996267;28;20046;-66
2021/08/18 11:00:08;;;;;;;7.28;4.65;;;;;;;17.90;81.01;98081.97;5028771;28;20029;-64
2021/08/18 11:02:54;;;;;;;7.25;4.20;;;;;;;18.46;79.77;98083.31;5029355;28;20021;-64
2021/08/18 11:05:22;;;;;;;5.70;3.80;;;;;;;18.19;81.90;98081.69;5028177;28;20053;-67
2021/08/18 11:08:04;;;;;;;6.88;4.18;;;;;;;18.59;79.03;98073.53;5027648;28;20021;-66
2021/08/18 11:10:31;;;;;;;7.15;4.03;;;;;;;18.75;78.65;98082.97;5027996;28;20029;-64
2021/08/18 11:12:58;;;;;;;6.65;4.13;;;;;;;18.46;78.88;98088.59;5027633;28;20026;-64
2021/08/18 11:15:26;;;;;;;5.85;4.05;;;;;;;18.42;77.92;98082.69;5029502;28;20043;-67
2021/08/18 11:17:56;;;;;;;7.07;4.00;;;;;;;18.56;77.16;98079.03;5028424;28;20792;-67
2021/08/18 11:20:24;;;;;;;5.50;3.83;;;;;;;18.86;76.93;98075.16;5027527;28;20857;-64
2021/08/18 11:22:53;;;;;;;6.30;4.07;;;;;;;18.54;76.50;98075.66;5028512;28;20033;-63
2021/08/18 11:25:19;;;;;;;6.53;4.30;;;;;;;18.40;78.09;98083.78;5027658;28;20025;-63
2021/08/18 11:27:53;;;;;;;6.15;3.75;;;;;;;18.34;78.87;98077.09;5029641;28;20645;-66